sensor_id;sensor_type;location;lat;lon;timestamp;temperature;humidity
48936;DHT22;34745;52.276;10.528;2022-10-04T00:02:14;11.90;99.90
48936;DHT22;34745;52.276;10.528;2022-10-04T00:04:46;11.90;99.90
48936;DHT22;34745;52.276;10.528;2022-10-04T00:07:20;11.90;99.90
48936;DHT22;34745;52.276;10.528;2022-10-04T00:09:50;11.90;99.90
48936;DHT22;34745;52.276;10.528;2022-10-04T00:12:21;11.80;99.90
48936;DHT22;34745;52.276;10.528;2022-10-04T00:14:49;11.80;99.90
48936;DHT22;34745;52.276;10.528;2022-10-04T00:17:21;11.80;99.90
48936;DHT22;34745;52.276;10.528;2022-10-04T00:19:51;11.70;99.90
48936;DHT22;34745;52.276;10.528;2022-10-04T00:22:21;11.70;99.90
48936;DHT22;34745;52.276;10.528;2022-10-04T00:25:18;11.70;99.90
48936;DHT22;34745;52.276;10.528;2022-10-04T00:31:11;11.70;99.90
48936;DHT22;34745;52.276;10.528;2022-10-04T00:33:41;11.70;99.90
48936;DHT22;34745;52.276;10.528;2022-10-04T00:36:39;11.70;99.90
48936;DHT22;34745;52.276;10.528;2022-10-04T00:39:38;11.80;99.90
48936;DHT22;34745;52.276;10.528;2022-10-04T00:42:23;11.70;99.90
48936;DHT22;34745;52.276;10.528;2022-10-04T00:44:57;11.70;99.90
48936;DHT22;34745;52.276;10.528;2022-10-04T00:47:29;11.70;99.90
48936;DHT22;34745;52.276;10.528;2022-10-04T00:50:06;11.60;99.90
48936;DHT22;34745;52.276;10.528;2022-10-04T00:52:43;11.60;99.90
48936;DHT22;34745;52.276;10.528;2022-10-04T00:55:19;11.60;99.90
48936;DHT22;34745;52.276;10.528;2022-10-04T00:57:52;11.60;99.90
48936;DHT22;34745;52.276;10.528;2022-10-04T01:00:24;11.60;99.90
48936;DHT22;34745;52.276;10.528;2022-10-04T01:02:54;11.60;99.90
48936;DHT22;34745;52.276;10.528;2022-10-04T01:05:27;11.70;99.90
48936;DHT22;34745;52.276;10.528;2022-10-04T01:08:03;11.60;99.90
48936;DHT22;34745;52.276;10.528;2022-10-04T01:10:37;11.60;99.90
48936;DHT22;34745;52.276;10.528;2022-10-04T01:13:12;11.60;99.90
48936;DHT22;34745;52.276;10.528;2022-10-04T01:15:43;11.60;99.90
48936;DHT22;34745;52.276;10.528;2022-10-04T01:18:13;11.60;99.90
48936;DHT22;34745;52.276;10.528;2022-10-04T01:20:51;11.50;99.90
48936;DHT22;34745;52.276;10.528;2022-10-04T01:23:33;11.60;99.90
48936;DHT22;34745;52.276;10.528;2022-10-04T01:26:02;11.50;99.90
48936;DHT22;34745;52.276;10.528;2022-10-04T01:28:30;11.50;99.90
48936;DHT22;34745;52.276;10.528;2022-10-04T01:30:58;11.40;99.90
48936;DHT22;34745;52.276;10.528;2022-10-04T01:33:26;11.40;99.90
48936;DHT22;34745;52.276;10.528;2022-10-04T01:35:53;11.40;99.90
48936;DHT22;34745;52.276;10.528;2022-10-04T01:38:20;11.40;99.90
48936;DHT22;34745;52.276;10.528;2022-10-04T01:40:52;11.40;99.90
48936;DHT22;34745;52.276;10.528;2022-10-04T01:43:24;11.50;99.90
48936;DHT22;34745;52.276;10.528;2022-10-04T01:45:57;11.40;99.90
48936;DHT22;34745;52.276;10.528;2022-10-04T01:48:30;11.40;99.90
48936;DHT22;34745;52.276;10.528;2022-10-04T01:51:00;11.40;99.90
48936;DHT22;34745;52.276;10.528;2022-10-04T01:53:34;11.50;99.90
48936;DHT22;34745;52.276;10.528;2022-10-04T01:56:11;11.40;99.90
48936;DHT22;34745;52.276;10.528;2022-10-04T01:58:43;11.40;99.90
48936;DHT22;34745;52.276;10.528;2022-10-04T02:01:13;11.40;99.90
48936;DHT22;34745;52.276;10.528;2022-10-04T02:03:44;11.40;99.90
48936;DHT22;34745;52.276;10.528;2022-10-04T02:06:14;11.40;99.90
48936;DHT22;34745;52.276;10.528;2022-10-04T02:08:46;11.40;99.90
48936;DHT22;34745;52.276;10.528;2022-10-04T02:11:18;11.40;99.90
48936;DHT22;34745;52.276;10.528;2022-10-04T02:13:49;11.40;99.90
48936;DHT22;34745;52.276;10.528;2022-10-04T02:16:17;11.40;99.90
48936;DHT22;34745;52.276;10.528;2022-10-04T02:18:48;11.40;99.90
48936;DHT22;34745;52.276;10.528;2022-10-04T02:21:17;11.40;99.90
48936;DHT22;34745;52.276;10.528;2022-10-04T02:23:45;11.40;99.90
48936;DHT22;34745;52.276;10.528;2022-10-04T02:26:13;11.40;99.90
48936;DHT22;34745;52.276;10.528;2022-10-04T02:28:41;11.30;99.90
48936;DHT22;34745;52.276;10.528;2022-10-04T02:31:09;11.30;99.90
48936;DHT22;34745;52.276;10.528;2022-10-04T02:33:57;11.40;99.90
48936;DHT22;34745;52.276;10.528;2022-10-04T02:36:26;11.30;99.90
48936;DHT22;34745;52.276;10.528;2022-10-04T02:38:58;11.20;99.90
48936;DHT22;34745;52.276;10.528;2022-10-04T02:41:29;11.20;99.90
48936;DHT22;34745;52.276;10.528;2022-10-04T02:44:03;11.20;99.90
48936;DHT22;34745;52.276;10.528;2022-10-04T02:46:40;11.20;99.90
48936;DHT22;34745;52.276;10.528;2022-10-04T02:49:14;11.20;99.90
48936;DHT22;34745;52.276;10.528;2022-10-04T02:51:48;11.20;99.90
48936;DHT22;34745;52.276;10.528;2022-10-04T02:54:21;11.30;99.90
48936;DHT22;34745;52.276;10.528;2022-10-04T02:56:54;11.30;99.90
48936;DHT22;34745;52.276;10.528;2022-10-04T02:59:23;11.20;99.90
48936;DHT22;34745;52.276;10.528;2022-10-04T03:01:52;11.20;99.90
48936;DHT22;34745;52.276;10.528;2022-10-04T03:04:22;11.30;99.90
48936;DHT22;34745;52.276;10.528;2022-10-04T03:06:51;11.30;99.90
48936;DHT22;34745;52.276;10.528;2022-10-04T03:09:20;11.30;99.90
48936;DHT22;34745;52.276;10.528;2022-10-04T03:11:55;11.30;99.90
48936;DHT22;34745;52.276;10.528;2022-10-04T03:14:25;11.30;99.90
48936;DHT22;34745;52.276;10.528;2022-10-04T03:16:55;11.30;99.90
48936;DHT22;34745;52.276;10.528;2022-10-04T03:19:24;11.30;99.90
48936;DHT22;34745;52.276;10.528;2022-10-04T03:21:56;11.30;99.90
48936;DHT22;34745;52.276;10.528;2022-10-04T03:24:27;11.30;99.90
48936;DHT22;34745;52.276;10.528;2022-10-04T03:26:55;11.40;99.90
48936;DHT22;34745;52.276;10.528;2022-10-04T03:29:27;11.30;99.90
48936;DHT22;34745;52.276;10.528;2022-10-04T03:31:56;11.30;99.90
48936;DHT22;34745;52.276;10.528;2022-10-04T03:34:33;11.30;99.90
48936;DHT22;34745;52.276;10.528;2022-10-04T03:37:05;11.30;99.90
48936;DHT22;34745;52.276;10.528;2022-10-04T03:39:36;11.30;99.90
48936;DHT22;34745;52.276;10.528;2022-10-04T03:42:08;11.30;99.90
48936;DHT22;34745;52.276;10.528;2022-10-04T03:44:39;11.30;99.90
48936;DHT22;34745;52.276;10.528;2022-10-04T03:47:09;11.30;99.90
48936;DHT22;34745;52.276;10.528;2022-10-04T03:49:37;11.30;99.90
48936;DHT22;34745;52.276;10.528;2022-10-04T03:52:06;11.30;99.90
48936;DHT22;34745;52.276;10.528;2022-10-04T03:54:39;11.30;99.90
48936;DHT22;34745;52.276;10.528;2022-10-04T03:57:06;11.30;99.90
48936;DHT22;34745;52.276;10.528;2022-10-04T03:59:35;11.30;99.90
48936;DHT22;34745;52.276;10.528;2022-10-04T04:02:09;11.30;99.90
48936;DHT22;34745;52.276;10.528;2022-10-04T04:04:43;11.30;99.90
48936;DHT22;34745;52.276;10.528;2022-10-04T04:07:16;11.30;99.90
48936;DHT22;34745;52.276;10.528;2022-10-04T04:09:49;11.30;99.90
48936;DHT22;34745;52.276;10.528;2022-10-04T04:12:21;11.30;99.90
48936;DHT22;34745;52.276;10.528;2022-10-04T04:14:51;11.30;99.90
48936;DHT22;34745;52.276;10.528;2022-10-04T04:17:35;11.20;99.90
48936;DHT22;34745;52.276;10.528;2022-10-04T04:20:06;11.30;99.90
48936;DHT22;34745;52.276;10.528;2022-10-04T04:22:40;11.20;99.90
48936;DHT22;34745;52.276;10.528;2022-10-04T04:25:13;11.30;99.90
48936;DHT22;34745;52.276;10.528;2022-10-04T04:27:43;11.20;99.90
48936;DHT22;34745;52.276;10.528;2022-10-04T04:30:16;11.20;99.90
48936;DHT22;34745;52.276;10.528;2022-10-04T04:32:47;11.30;99.90
48936;DHT22;34745;52.276;10.528;2022-10-04T04:35:24;11.20;99.90
48936;DHT22;34745;52.276;10.528;2022-10-04T04:38:12;11.20;99.90
48936;DHT22;34745;52.276;10.528;2022-10-04T04:40:40;11.20;99.90
48936;DHT22;34745;52.276;10.528;2022-10-04T04:43:13;11.20;99.90
48936;DHT22;34745;52.276;10.528;2022-10-04T04:45:44;11.20;99.90
48936;DHT22;34745;52.276;10.528;2022-10-04T04:48:14;11.20;99.90
48936;DHT22;34745;52.276;10.528;2022-10-04T04:50:42;11.20;99.90
48936;DHT22;34745;52.276;10.528;2022-10-04T04:53:16;11.20;99.90
48936;DHT22;34745;52.276;10.528;2022-10-04T04:55:47;11.20;99.90
48936;DHT22;34745;52.276;10.528;2022-10-04T04:58:31;11.20;99.90
48936;DHT22;34745;52.276;10.528;2022-10-04T05:01:04;11.20;99.90
48936;DHT22;34745;52.276;10.528;2022-10-04T05:03:33;11.20;99.90
48936;DHT22;34745;52.276;10.528;2022-10-04T05:06:01;11.20;99.90
48936;DHT22;34745;52.276;10.528;2022-10-04T05:08:31;11.20;99.90
48936;DHT22;34745;52.276;10.528;2022-10-04T05:11:12;11.20;99.90
48936;DHT22;34745;52.276;10.528;2022-10-04T05:13:44;11.30;99.90
48936;DHT22;34745;52.276;10.528;2022-10-04T05:16:17;11.30;99.90
48936;DHT22;34745;52.276;10.528;2022-10-04T05:18:47;11.30;99.90
48936;DHT22;34745;52.276;10.528;2022-10-04T05:21:19;11.20;99.90
48936;DHT22;34745;52.276;10.528;2022-10-04T05:23:48;11.30;99.90
48936;DHT22;34745;52.276;10.528;2022-10-04T05:26:25;11.30;99.90
48936;DHT22;34745;52.276;10.528;2022-10-04T05:28:54;11.30;99.90
48936;DHT22;34745;52.276;10.528;2022-10-04T05:31:31;11.30;99.90
48936;DHT22;34745;52.276;10.528;2022-10-04T05:34:14;11.30;99.90
48936;DHT22;34745;52.276;10.528;2022-10-04T05:36:49;11.40;99.90
48936;DHT22;34745;52.276;10.528;2022-10-04T05:39:23;11.40;99.90
48936;DHT22;34745;52.276;10.528;2022-10-04T05:41:56;11.50;99.90
48936;DHT22;34745;52.276;10.528;2022-10-04T05:44:28;11.50;99.90
48936;DHT22;34745;52.276;10.528;2022-10-04T05:46:56;11.50;99.90
48936;DHT22;34745;52.276;10.528;2022-10-04T05:49:29;11.50;99.90
48936;DHT22;34745;52.276;10.528;2022-10-04T05:52:01;11.60;99.90
48936;DHT22;34745;52.276;10.528;2022-10-04T05:54:32;11.60;99.90
48936;DHT22;34745;52.276;10.528;2022-10-04T05:57:32;11.50;99.90
48936;DHT22;34745;52.276;10.528;2022-10-04T06:00:11;11.50;99.90
48936;DHT22;34745;52.276;10.528;2022-10-04T06:03:12;11.50;99.90
48936;DHT22;34745;52.276;10.528;2022-10-04T06:05:50;11.60;99.90
48936;DHT22;34745;52.276;10.528;2022-10-04T06:08:47;11.60;99.90
48936;DHT22;34745;52.276;10.528;2022-10-04T06:11:31;11.70;99.90
48936;DHT22;34745;52.276;10.528;2022-10-04T06:17:36;11.70;99.90
48936;DHT22;34745;52.276;10.528;2022-10-04T06:20:24;11.60;99.90
48936;DHT22;34745;52.276;10.528;2022-10-04T06:23:00;11.60;99.90
48936;DHT22;34745;52.276;10.528;2022-10-04T06:25:30;11.60;99.90
48936;DHT22;34745;52.276;10.528;2022-10-04T06:28:05;11.60;99.90
48936;DHT22;34745;52.276;10.528;2022-10-04T06:30:49;11.60;99.90
48936;DHT22;34745;52.276;10.528;2022-10-04T06:33:28;11.60;99.90
48936;DHT22;34745;52.276;10.528;2022-10-04T06:36:24;11.60;99.90
48936;DHT22;34745;52.276;10.528;2022-10-04T06:39:23;11.70;99.90
48936;DHT22;34745;52.276;10.528;2022-10-04T06:42:12;11.70;99.90
48936;DHT22;34745;52.276;10.528;2022-10-04T06:44:54;11.60;99.90
48936;DHT22;34745;52.276;10.528;2022-10-04T06:47:40;11.70;99.90
48936;DHT22;34745;52.276;10.528;2022-10-04T06:50:18;11.70;99.90
48936;DHT22;34745;52.276;10.528;2022-10-04T06:52:57;11.80;99.90
48936;DHT22;34745;52.276;10.528;2022-10-04T06:58:57;11.90;99.90
48936;DHT22;34745;52.276;10.528;2022-10-04T07:01:28;12.00;99.90
48936;DHT22;34745;52.276;10.528;2022-10-04T07:04:03;12.00;99.90
48936;DHT22;34745;52.276;10.528;2022-10-04T07:06:35;12.10;99.90
48936;DHT22;34745;52.276;10.528;2022-10-04T07:09:05;12.10;99.90
48936;DHT22;34745;52.276;10.528;2022-10-04T07:11:45;12.00;99.90
48936;DHT22;34745;52.276;10.528;2022-10-04T07:14:16;12.10;99.90
48936;DHT22;34745;52.276;10.528;2022-10-04T07:16:47;12.10;99.90
48936;DHT22;34745;52.276;10.528;2022-10-04T07:19:29;12.20;99.90
48936;DHT22;34745;52.276;10.528;2022-10-04T07:22:08;12.20;99.90
48936;DHT22;34745;52.276;10.528;2022-10-04T07:24:47;12.30;99.90
48936;DHT22;34745;52.276;10.528;2022-10-04T07:27:22;12.20;99.90
48936;DHT22;34745;52.276;10.528;2022-10-04T07:29:53;12.30;99.90
48936;DHT22;34745;52.276;10.528;2022-10-04T07:32:22;12.30;99.90
48936;DHT22;34745;52.276;10.528;2022-10-04T07:34:54;12.40;99.90
48936;DHT22;34745;52.276;10.528;2022-10-04T07:37:26;12.30;99.00
48936;DHT22;34745;52.276;10.528;2022-10-04T07:39:58;12.30;99.90
48936;DHT22;34745;52.276;10.528;2022-10-04T07:42:31;12.30;99.90
48936;DHT22;34745;52.276;10.528;2022-10-04T07:45:11;12.40;99.20
48936;DHT22;34745;52.276;10.528;2022-10-04T07:47:40;12.50;98.40
48936;DHT22;34745;52.276;10.528;2022-10-04T07:50:27;12.50;89.80
48936;DHT22;34745;52.276;10.528;2022-10-04T07:52:57;12.60;85.70
48936;DHT22;34745;52.276;10.528;2022-10-04T07:55:41;12.70;76.40
48936;DHT22;34745;52.276;10.528;2022-10-04T07:58:21;12.80;57.80
48936;DHT22;34745;52.276;10.528;2022-10-04T08:00:55;12.90;50.70
48936;DHT22;34745;52.276;10.528;2022-10-04T08:03:35;13.00;35.00
48936;DHT22;34745;52.276;10.528;2022-10-04T08:06:11;13.10;24.80
48936;DHT22;34745;52.276;10.528;2022-10-04T08:08:52;13.20;18.40
48936;DHT22;34745;52.276;10.528;2022-10-04T08:11:29;13.20;5.20
48936;DHT22;34745;52.276;10.528;2022-10-04T08:14:12;13.40;3.80
48936;DHT22;34745;52.276;10.528;2022-10-04T08:16:48;13.50;1.00
48936;DHT22;34745;52.276;10.528;2022-10-04T08:19:27;13.60;1.00
48936;DHT22;34745;52.276;10.528;2022-10-04T08:22:01;13.70;1.00
48936;DHT22;34745;52.276;10.528;2022-10-04T08:24:33;13.70;1.00
48936;DHT22;34745;52.276;10.528;2022-10-04T08:27:20;13.70;1.00
48936;DHT22;34745;52.276;10.528;2022-10-04T08:30:00;13.90;1.00
48936;DHT22;34745;52.276;10.528;2022-10-04T08:32:44;14.00;1.00
48936;DHT22;34745;52.276;10.528;2022-10-04T08:35:28;14.10;1.00
48936;DHT22;34745;52.276;10.528;2022-10-04T08:38:24;14.10;1.00
48936;DHT22;34745;52.276;10.528;2022-10-04T08:41:30;14.10;1.00
48936;DHT22;34745;52.276;10.528;2022-10-04T08:44:25;14.10;1.00
48936;DHT22;34745;52.276;10.528;2022-10-04T08:47:20;14.20;1.00
48936;DHT22;34745;52.276;10.528;2022-10-04T08:50:25;14.20;1.00
48936;DHT22;34745;52.276;10.528;2022-10-04T08:53:20;14.20;1.00
48936;DHT22;34745;52.276;10.528;2022-10-04T08:56:03;14.20;1.00
48936;DHT22;34745;52.276;10.528;2022-10-04T08:58:49;14.20;1.00
48936;DHT22;34745;52.276;10.528;2022-10-04T09:01:30;14.20;1.00
48936;DHT22;34745;52.276;10.528;2022-10-04T09:07:36;14.20;1.00
48936;DHT22;34745;52.276;10.528;2022-10-04T09:13:22;14.20;1.00
48936;DHT22;34745;52.276;10.528;2022-10-04T09:15:52;14.20;1.00
48936;DHT22;34745;52.276;10.528;2022-10-04T09:18:22;14.20;1.00
48936;DHT22;34745;52.276;10.528;2022-10-04T09:20:56;14.40;1.00
48936;DHT22;34745;52.276;10.528;2022-10-04T09:26:43;14.60;1.00
48936;DHT22;34745;52.276;10.528;2022-10-04T09:29:31;14.60;1.00
48936;DHT22;34745;52.276;10.528;2022-10-04T09:32:39;14.60;1.00
48936;DHT22;34745;52.276;10.528;2022-10-04T09:35:33;14.70;1.00
48936;DHT22;34745;52.276;10.528;2022-10-04T09:38:27;14.70;1.00
48936;DHT22;34745;52.276;10.528;2022-10-04T09:41:11;14.80;1.00
48936;DHT22;34745;52.276;10.528;2022-10-04T09:44:16;14.80;1.00
48936;DHT22;34745;52.276;10.528;2022-10-04T09:46:59;14.90;1.00
48936;DHT22;34745;52.276;10.528;2022-10-04T09:49:47;15.00;1.00
48936;DHT22;34745;52.276;10.528;2022-10-04T09:52:27;15.10;1.00
48936;DHT22;34745;52.276;10.528;2022-10-04T09:55:21;15.10;1.00
48936;DHT22;34745;52.276;10.528;2022-10-04T09:58:13;15.10;1.00
48936;DHT22;34745;52.276;10.528;2022-10-04T10:00:49;15.20;1.00
48936;DHT22;34745;52.276;10.528;2022-10-04T10:03:42;15.20;1.00
48936;DHT22;34745;52.276;10.528;2022-10-04T10:06:31;15.30;1.00
48936;DHT22;34745;52.276;10.528;2022-10-04T10:09:10;15.30;1.00
48936;DHT22;34745;52.276;10.528;2022-10-04T10:11:47;15.50;1.00
48936;DHT22;34745;52.276;10.528;2022-10-04T10:14:59;15.60;1.00
48936;DHT22;34745;52.276;10.528;2022-10-04T10:17:33;15.80;1.00
48936;DHT22;34745;52.276;10.528;2022-10-04T10:20:32;16.20;1.00
48936;DHT22;34745;52.276;10.528;2022-10-04T10:23:23;16.50;1.00
48936;DHT22;34745;52.276;10.528;2022-10-04T10:26:05;17.00;1.00
48936;DHT22;34745;52.276;10.528;2022-10-04T10:31:58;17.60;1.00
48936;DHT22;34745;52.276;10.528;2022-10-04T10:34:49;17.80;1.00
48936;DHT22;34745;52.276;10.528;2022-10-04T10:37:36;18.20;1.00
48936;DHT22;34745;52.276;10.528;2022-10-04T10:40:27;18.10;1.00
48936;DHT22;34745;52.276;10.528;2022-10-04T10:46:00;18.50;1.00
48936;DHT22;34745;52.276;10.528;2022-10-04T10:49:06;18.30;1.00
48936;DHT22;34745;52.276;10.528;2022-10-04T10:55:15;17.50;1.00
48936;DHT22;34745;52.276;10.528;2022-10-04T10:58:09;17.50;1.00
48936;DHT22;34745;52.276;10.528;2022-10-04T11:00:48;17.20;1.00
48936;DHT22;34745;52.276;10.528;2022-10-04T11:03:30;17.00;1.00
48936;DHT22;34745;52.276;10.528;2022-10-04T11:06:37;16.90;1.00
48936;DHT22;34745;52.276;10.528;2022-10-04T11:09:29;16.70;1.00
48936;DHT22;34745;52.276;10.528;2022-10-04T11:12:19;16.70;1.00
48936;DHT22;34745;52.276;10.528;2022-10-04T11:23:56;17.30;1.00
48936;DHT22;34745;52.276;10.528;2022-10-04T11:26:47;17.10;1.00
48936;DHT22;34745;52.276;10.528;2022-10-04T11:29:25;17.30;1.00
48936;DHT22;34745;52.276;10.528;2022-10-04T11:35:30;17.60;1.00
48936;DHT22;34745;52.276;10.528;2022-10-04T11:38:09;17.80;1.00
48936;DHT22;34745;52.276;10.528;2022-10-04T11:40:54;18.20;1.00
48936;DHT22;34745;52.276;10.528;2022-10-04T11:43:43;18.00;1.00
48936;DHT22;34745;52.276;10.528;2022-10-04T11:46:22;18.20;1.00
48936;DHT22;34745;52.276;10.528;2022-10-04T11:49:13;18.30;1.00
48936;DHT22;34745;52.276;10.528;2022-10-04T11:54:56;18.70;1.00
48936;DHT22;34745;52.276;10.528;2022-10-04T11:57:36;18.40;1.00
48936;DHT22;34745;52.276;10.528;2022-10-04T12:00:09;18.20;1.00
48936;DHT22;34745;52.276;10.528;2022-10-04T12:03:06;18.30;1.00
48936;DHT22;34745;52.276;10.528;2022-10-04T12:06:19;18.40;1.00
48936;DHT22;34745;52.276;10.528;2022-10-04T12:08:59;18.50;1.00
48936;DHT22;34745;52.276;10.528;2022-10-04T12:14:58;19.00;1.00
48936;DHT22;34745;52.276;10.528;2022-10-04T12:17:57;19.10;1.00
48936;DHT22;34745;52.276;10.528;2022-10-04T12:20:53;19.30;1.00
48936;DHT22;34745;52.276;10.528;2022-10-04T12:30:15;19.10;1.00
48936;DHT22;34745;52.276;10.528;2022-10-04T12:32:56;19.40;1.00
48936;DHT22;34745;52.276;10.528;2022-10-04T12:35:33;19.60;1.00
48936;DHT22;34745;52.276;10.528;2022-10-04T12:38:28;19.60;1.00
48936;DHT22;34745;52.276;10.528;2022-10-04T12:41:07;19.70;1.00
48936;DHT22;34745;52.276;10.528;2022-10-04T12:43:47;20.10;1.00
48936;DHT22;34745;52.276;10.528;2022-10-04T12:46:29;20.20;1.00
48936;DHT22;34745;52.276;10.528;2022-10-04T12:49:14;20.60;1.00
48936;DHT22;34745;52.276;10.528;2022-10-04T12:51:51;20.90;1.00
48936;DHT22;34745;52.276;10.528;2022-10-04T12:54:31;20.90;99.90
48936;DHT22;34745;52.276;10.528;2022-10-04T12:57:12;20.70;1.00
48936;DHT22;34745;52.276;10.528;2022-10-04T12:59:50;20.80;99.90
48936;DHT22;34745;52.276;10.528;2022-10-04T13:02:32;21.10;99.90
48936;DHT22;34745;52.276;10.528;2022-10-04T13:05:09;21.10;99.90
48936;DHT22;34745;52.276;10.528;2022-10-04T13:08:04;21.40;99.90
48936;DHT22;34745;52.276;10.528;2022-10-04T13:10:45;21.80;99.90
48936;DHT22;34745;52.276;10.528;2022-10-04T13:13:50;21.70;99.90
48936;DHT22;34745;52.276;10.528;2022-10-04T13:16:28;21.80;99.90
48936;DHT22;34745;52.276;10.528;2022-10-04T13:19:26;21.60;99.90
48936;DHT22;34745;52.276;10.528;2022-10-04T13:22:11;21.10;99.90
48936;DHT22;34745;52.276;10.528;2022-10-04T13:25:14;21.40;99.90
48936;DHT22;34745;52.276;10.528;2022-10-04T13:27:48;21.20;99.90
48936;DHT22;34745;52.276;10.528;2022-10-04T13:30:20;21.20;99.90
48936;DHT22;34745;52.276;10.528;2022-10-04T13:32:57;20.90;99.90
48936;DHT22;34745;52.276;10.528;2022-10-04T13:35:31;21.10;99.90
48936;DHT22;34745;52.276;10.528;2022-10-04T13:38:22;21.50;99.90
48936;DHT22;34745;52.276;10.528;2022-10-04T13:41:05;21.50;99.90
48936;DHT22;34745;52.276;10.528;2022-10-04T13:46:41;21.80;99.90
48936;DHT22;34745;52.276;10.528;2022-10-04T13:49:28;22.20;99.90
48936;DHT22;34745;52.276;10.528;2022-10-04T13:52:14;22.30;99.90
48936;DHT22;34745;52.276;10.528;2022-10-04T13:55:18;22.30;99.90
48936;DHT22;34745;52.276;10.528;2022-10-04T13:58:18;22.00;99.90
48936;DHT22;34745;52.276;10.528;2022-10-04T14:01:12;21.60;99.90
48936;DHT22;34745;52.276;10.528;2022-10-04T14:03:56;21.80;99.90
48936;DHT22;34745;52.276;10.528;2022-10-04T14:09:54;22.40;99.90
48936;DHT22;34745;52.276;10.528;2022-10-04T14:12:52;22.30;99.90
48936;DHT22;34745;52.276;10.528;2022-10-04T14:15:56;22.40;99.90
48936;DHT22;34745;52.276;10.528;2022-10-04T14:19:21;22.70;99.90
48936;DHT22;34745;52.276;10.528;2022-10-04T14:28:56;23.00;99.90
48936;DHT22;34745;52.276;10.528;2022-10-04T14:31:49;22.60;99.90
48936;DHT22;34745;52.276;10.528;2022-10-04T14:34:51;22.60;99.90
48936;DHT22;34745;52.276;10.528;2022-10-04T14:41:07;22.20;99.90
48936;DHT22;34745;52.276;10.528;2022-10-04T14:47:15;22.30;99.90
48936;DHT22;34745;52.276;10.528;2022-10-04T14:50:24;22.40;99.90
48936;DHT22;34745;52.276;10.528;2022-10-04T14:53:14;22.30;99.90
48936;DHT22;34745;52.276;10.528;2022-10-04T14:56:22;22.30;99.90
48936;DHT22;34745;52.276;10.528;2022-10-04T14:59:08;22.20;99.90
48936;DHT22;34745;52.276;10.528;2022-10-04T15:02:27;22.10;99.90
48936;DHT22;34745;52.276;10.528;2022-10-04T15:05:27;22.10;99.90
48936;DHT22;34745;52.276;10.528;2022-10-04T15:08:31;21.60;99.90
48936;DHT22;34745;52.276;10.528;2022-10-04T15:11:15;21.30;99.90
48936;DHT22;34745;52.276;10.528;2022-10-04T15:14:00;20.90;99.90
48936;DHT22;34745;52.276;10.528;2022-10-04T15:16:58;20.30;99.90
48936;DHT22;34745;52.276;10.528;2022-10-04T15:19:35;19.70;1.00
48936;DHT22;34745;52.276;10.528;2022-10-04T15:22:25;19.60;1.00
48936;DHT22;34745;52.276;10.528;2022-10-04T15:25:46;19.40;1.00
48936;DHT22;34745;52.276;10.528;2022-10-04T15:31:42;19.30;1.00
48936;DHT22;34745;52.276;10.528;2022-10-04T15:34:27;19.00;1.00
48936;DHT22;34745;52.276;10.528;2022-10-04T15:37:13;18.90;1.00
48936;DHT22;34745;52.276;10.528;2022-10-04T15:40:13;18.90;1.00
48936;DHT22;34745;52.276;10.528;2022-10-04T15:49:25;18.60;1.00
48936;DHT22;34745;52.276;10.528;2022-10-04T15:52:08;18.50;1.00
48936;DHT22;34745;52.276;10.528;2022-10-04T15:57:59;18.40;1.00
48936;DHT22;34745;52.276;10.528;2022-10-04T16:00:47;18.40;1.00
48936;DHT22;34745;52.276;10.528;2022-10-04T16:03:37;18.30;1.00
48936;DHT22;34745;52.276;10.528;2022-10-04T16:06:22;18.10;1.00
48936;DHT22;34745;52.276;10.528;2022-10-04T16:09:07;18.10;1.00
48936;DHT22;34745;52.276;10.528;2022-10-04T16:11:49;18.10;1.00
48936;DHT22;34745;52.276;10.528;2022-10-04T16:15:01;17.90;1.00
48936;DHT22;34745;52.276;10.528;2022-10-04T16:17:48;17.90;1.00
48936;DHT22;34745;52.276;10.528;2022-10-04T16:21:00;17.90;1.00
48936;DHT22;34745;52.276;10.528;2022-10-04T16:23:41;17.80;1.00
48936;DHT22;34745;52.276;10.528;2022-10-04T16:29:48;17.70;1.00
48936;DHT22;34745;52.276;10.528;2022-10-04T16:33:01;17.60;1.00
48936;DHT22;34745;52.276;10.528;2022-10-04T16:35:41;17.50;1.00
48936;DHT22;34745;52.276;10.528;2022-10-04T16:38:23;17.50;1.00
48936;DHT22;34745;52.276;10.528;2022-10-04T16:41:07;17.40;1.00
48936;DHT22;34745;52.276;10.528;2022-10-04T16:43:51;17.30;1.00
48936;DHT22;34745;52.276;10.528;2022-10-04T16:46:28;17.20;1.00
48936;DHT22;34745;52.276;10.528;2022-10-04T16:49:30;17.20;1.00
48936;DHT22;34745;52.276;10.528;2022-10-04T16:55:31;17.10;1.00
48936;DHT22;34745;52.276;10.528;2022-10-04T17:05:02;16.90;1.00
48936;DHT22;34745;52.276;10.528;2022-10-04T17:07:56;16.80;1.00
48936;DHT22;34745;52.276;10.528;2022-10-04T17:10:39;16.80;1.00
48936;DHT22;34745;52.276;10.528;2022-10-04T17:13:24;16.80;1.00
48936;DHT22;34745;52.276;10.528;2022-10-04T17:16:05;16.70;1.00
48936;DHT22;34745;52.276;10.528;2022-10-04T17:18:49;16.60;1.00
48936;DHT22;34745;52.276;10.528;2022-10-04T17:21:32;16.60;1.00
48936;DHT22;34745;52.276;10.528;2022-10-04T17:24:35;16.50;1.00
48936;DHT22;34745;52.276;10.528;2022-10-04T17:27:25;16.40;1.00
48936;DHT22;34745;52.276;10.528;2022-10-04T17:30:15;16.40;1.00
48936;DHT22;34745;52.276;10.528;2022-10-04T17:33:21;16.30;1.00
48936;DHT22;34745;52.276;10.528;2022-10-04T17:39:34;16.20;1.00
48936;DHT22;34745;52.276;10.528;2022-10-04T17:42:22;16.10;1.00
48936;DHT22;34745;52.276;10.528;2022-10-04T17:45:11;16.00;1.00
48936;DHT22;34745;52.276;10.528;2022-10-04T17:47:55;16.10;1.00
48936;DHT22;34745;52.276;10.528;2022-10-04T17:50:53;15.90;1.00
48936;DHT22;34745;52.276;10.528;2022-10-04T17:53:44;15.90;1.00
48936;DHT22;34745;52.276;10.528;2022-10-04T17:56:43;15.90;1.00
48936;DHT22;34745;52.276;10.528;2022-10-04T17:59:25;15.80;1.00
48936;DHT22;34745;52.276;10.528;2022-10-04T18:02:08;15.70;1.00
48936;DHT22;34745;52.276;10.528;2022-10-04T18:04:58;15.70;1.00
48936;DHT22;34745;52.276;10.528;2022-10-04T18:07:42;15.60;1.00
48936;DHT22;34745;52.276;10.528;2022-10-04T18:10:33;15.60;1.00
48936;DHT22;34745;52.276;10.528;2022-10-04T18:13:26;15.60;1.00
48936;DHT22;34745;52.276;10.528;2022-10-04T18:16:13;15.40;1.00
48936;DHT22;34745;52.276;10.528;2022-10-04T18:18:45;15.40;1.00
48936;DHT22;34745;52.276;10.528;2022-10-04T18:21:22;15.40;1.00
48936;DHT22;34745;52.276;10.528;2022-10-04T18:24:17;15.40;1.00
48936;DHT22;34745;52.276;10.528;2022-10-04T18:26:57;15.40;1.00
48936;DHT22;34745;52.276;10.528;2022-10-04T18:29:56;15.30;1.00
48936;DHT22;34745;52.276;10.528;2022-10-04T18:32:55;15.30;1.00
48936;DHT22;34745;52.276;10.528;2022-10-04T18:35:52;15.30;1.00